LIML/LIN METAR and TAF weather

Enter ICAO airport designator
Station Type Date Time Source
LIML METAR 2019/06/16 20:20 UTC NOAA

LIML 162020Z 24003KT 200V290 CAVOK 26/13 Q1013 NOSIG


Station Type Date Time Source
LIML Decoded METAR 2019/06/16 20:20 UTC NOAA

Milano / Linate, Italy (LIML) 45-26N 009-17E 103M
Jun 16, 2019 - 04:20 PM EDT / 2019.06.16 2020 UTC
Wind: from the WSW (240 degrees) at 3 MPH (3 KT) (direction variable):0
Visibility: greater than 7 mile(s):0
Temperature: 78 F (26 C)
Dew Point: 55 F (13 C)
Relative Humidity: 44%
Pressure (altimeter): 29.91 in. Hg (1013 hPa)
ob: LIML 162020Z 24003KT 200V290 CAVOK 26/13 Q1013 NOSIG
cycle: 20

Station Type Date Time Source
LIML TAF 2019/06/16 18:21 UTC NOAA

TAF LIML 161700Z 1618/1718 VRB05KT CAVOK
TEMPO 1711/1716 10010KT

Example: see airport list